createdAt,value
2018-10-05T00:01:12.000Z,102375.36
2018-10-05T00:03:40.808Z,102361.73
2018-10-05T00:06:09.730Z,102368.72
2018-10-05T00:08:38.789Z,102366.45
2018-10-05T00:11:07.901Z,102366.09
2018-10-05T00:13:36.828Z,102355.70
2018-10-05T00:16:05.761Z,102362.07
2018-10-05T00:18:34.557Z,102357.49
2018-10-05T00:21:03.836Z,102357.36
2018-10-05T00:23:32.679Z,102353.55
2018-10-05T00:26:01.694Z,102358.22
2018-10-05T00:28:30.557Z,102356.02
2018-10-05T00:30:59.733Z,102355.12
2018-10-05T00:33:28.610Z,102356.23
2018-10-05T00:35:57.495Z,102356.08
2018-10-05T00:38:26.454Z,102356.73
2018-10-05T00:40:58.376Z,102354.92
2018-10-05T00:43:27.696Z,102352.95
2018-10-05T00:45:56.578Z,102352.53
2018-10-05T00:48:25.468Z,102354.47
2018-10-05T00:50:54.326Z,102349.53
2018-10-05T00:53:23.251Z,102344.80
2018-10-05T00:55:52.093Z,102346.38
2018-10-05T00:58:21.003Z,102341.06
2018-10-05T01:00:49.931Z,102339.25
2018-10-05T01:03:18.844Z,102333.16
2018-10-05T01:05:47.714Z,102329.34
2018-10-05T01:08:16.888Z,102330.09
2018-10-05T01:10:45.745Z,102335.45
2018-10-05T01:13:14.613Z,102335.93
2018-10-05T01:15:43.614Z,102335.02
2018-10-05T01:18:12.490Z,102338.73
2018-10-05T01:20:41.602Z,102333.86
2018-10-05T01:23:10.530Z,102333.17
2018-10-05T01:25:39.358Z,102333.78
2018-10-05T01:28:08.532Z,102341.19
2018-10-05T01:30:37.451Z,102332.44
2018-10-05T01:33:06.455Z,102336.06
2018-10-05T01:35:35.344Z,102331.27
2018-10-05T01:38:04.213Z,102328.44
2018-10-05T01:40:33.192Z,102332.57
2018-10-05T01:43:02.071Z,102327.72
2018-10-05T01:45:30.972Z,102326.59
2018-10-05T01:47:59.821Z,102325.49
2018-10-05T01:50:28.687Z,102326.64
2018-10-05T01:52:57.565Z,102323.14
2018-10-05T01:55:26.467Z,102325.47
2018-10-05T01:57:55.302Z,102318.56
2018-10-05T02:00:24.190Z,102314.93
2018-10-05T02:02:53.326Z,102313.11
2018-10-05T02:05:22.334Z,102309.64
2018-10-05T02:07:51.192Z,102312.50
2018-10-05T02:10:20.210Z,102308.70
2018-10-05T02:12:49.048Z,102306.78
2018-10-05T02:15:18.025Z,102310.09
2018-10-05T02:17:46.898Z,102310.86
2018-10-05T02:20:15.811Z,102309.39
2018-10-05T02:22:44.612Z,102307.23
2018-10-05T02:25:13.439Z,102302.61
2018-10-05T02:27:42.247Z,102308.20
2018-10-05T02:30:11.157Z,102304.50
2018-10-05T02:32:40.043Z,102298.25
2018-10-05T02:35:08.972Z,102296.48
2018-10-05T02:37:37.886Z,102294.43
2018-10-05T02:40:06.764Z,102296.27
2018-10-05T02:42:35.724Z,102295.00
2018-10-05T02:45:04.710Z,102290.81
2018-10-05T02:47:33.619Z,102293.70
2018-10-05T02:50:02.478Z,102286.07
2018-10-05T02:52:31.332Z,102290.00
2018-10-05T02:55:00.244Z,102283.34
2018-10-05T02:57:29.095Z,102283.99
2018-10-05T02:59:57.872Z,102280.84
2018-10-05T03:02:32.732Z,102272.01
2018-10-05T03:05:01.804Z,102266.97
2018-10-05T03:07:31.623Z,102270.25
2018-10-05T03:10:01.459Z,102271.13
2018-10-05T03:12:30.288Z,102270.34
2018-10-05T03:14:59.077Z,102272.27
2018-10-05T03:17:28.042Z,102269.28
2018-10-05T03:19:57.320Z,102265.74
2018-10-05T03:22:26.183Z,102270.16
2018-10-05T03:24:54.976Z,102264.86
2018-10-05T03:27:23.859Z,102267.98
2018-10-05T03:29:52.840Z,102266.23
2018-10-05T03:32:21.680Z,102266.16
2018-10-05T03:34:50.544Z,102265.19
2018-10-05T03:37:19.393Z,102257.55
2018-10-05T03:39:48.239Z,102257.49
2018-10-05T03:42:17.136Z,102256.03
2018-10-05T03:44:46.049Z,102255.38
2018-10-05T03:47:14.887Z,102245.44
2018-10-05T03:49:43.773Z,102243.52
2018-10-05T03:52:12.652Z,102236.86
2018-10-05T03:54:41.540Z,102238.62
2018-10-05T03:57:10.663Z,102235.75
2018-10-05T03:59:39.573Z,102235.33
2018-10-05T04:02:08.420Z,102233.97
2018-10-05T04:04:37.305Z,102228.91
2018-10-05T04:07:06.369Z,102228.74
2018-10-05T04:09:35.269Z,102231.80
2018-10-05T04:12:04.166Z,102236.93
2018-10-05T04:14:33.024Z,102233.78
2018-10-05T04:17:01.850Z,102235.17
2018-10-05T04:19:30.948Z,102225.20
2018-10-05T04:21:59.812Z,102232.22
2018-10-05T04:24:28.675Z,102232.77
2018-10-05T04:26:57.565Z,102228.58
2018-10-05T04:29:26.420Z,102236.85
2018-10-05T04:31:55.528Z,102232.27
2018-10-05T04:34:24.367Z,102236.07
2018-10-05T04:36:53.229Z,102236.18
2018-10-05T04:39:22.137Z,102235.27
2018-10-05T04:41:51.131Z,102235.97
2018-10-05T04:44:19.997Z,102231.80
2018-10-05T04:46:48.925Z,102234.31
2018-10-05T04:49:17.760Z,102232.21
2018-10-05T04:51:46.665Z,102230.72
2018-10-05T04:54:15.548Z,102227.05
2018-10-05T04:56:44.825Z,102230.17
2018-10-05T04:59:13.647Z,102224.47
2018-10-05T05:01:43.008Z,102222.03
2018-10-05T05:04:11.833Z,102225.72
2018-10-05T05:06:40.757Z,102219.70
2018-10-05T05:09:10.042Z,102220.98
2018-10-05T05:11:38.954Z,102220.30
2018-10-05T05:14:07.957Z,102218.50
2018-10-05T05:16:36.801Z,102220.30
2018-10-05T05:19:06.311Z,102218.06
2018-10-05T05:21:35.332Z,102219.59
2018-10-05T05:24:04.200Z,102217.63
2018-10-05T05:26:33.056Z,102220.09
2018-10-05T05:29:01.937Z,102217.92
2018-10-05T05:31:30.780Z,102215.73
2018-10-05T05:33:59.773Z,102218.39
2018-10-05T05:36:28.612Z,102220.81
2018-10-05T05:38:57.489Z,102218.32
2018-10-05T05:41:26.314Z,102221.54
2018-10-05T05:43:55.208Z,102229.28
2018-10-05T05:46:24.112Z,102226.87
2018-10-05T05:48:53.037Z,102230.32
2018-10-05T05:51:21.895Z,102231.25
2018-10-05T05:53:50.864Z,102223.08
2018-10-05T05:56:19.684Z,102223.92
2018-10-05T05:58:48.654Z,102230.64
2018-10-05T06:01:17.538Z,102225.89
2018-10-05T06:03:46.424Z,102228.30
2018-10-05T06:06:15.326Z,102229.52
2018-10-05T06:08:44.607Z,102221.55
2018-10-05T06:11:13.868Z,102224.27
2018-10-05T06:13:42.689Z,102224.09
2018-10-05T06:16:11.665Z,102228.99
2018-10-05T06:18:40.449Z,102234.38
2018-10-05T06:21:09.347Z,102241.09
2018-10-05T06:23:38.322Z,102247.47
2018-10-05T06:26:07.256Z,102241.81
2018-10-05T06:28:36.089Z,102242.53
2018-10-05T06:31:05.054Z,102245.06
2018-10-05T06:33:33.991Z,102246.87
2018-10-05T06:36:02.958Z,102237.70
2018-10-05T06:38:31.838Z,102240.16
2018-10-05T06:41:00.781Z,102239.86
2018-10-05T06:43:29.672Z,102237.73
2018-10-05T06:45:58.567Z,102243.35
2018-10-05T06:48:27.506Z,102238.59
2018-10-05T06:50:56.472Z,102236.67
2018-10-05T06:53:25.678Z,102238.62
2018-10-05T06:55:54.586Z,102232.92
2018-10-05T06:58:23.399Z,102233.97
2018-10-05T07:00:52.416Z,102228.73
2018-10-05T07:03:23.975Z,102227.39
2018-10-05T07:05:53.462Z,102226.88
2018-10-05T07:08:22.575Z,102222.30
2018-10-05T07:10:51.557Z,102230.24
2018-10-05T07:13:20.518Z,102230.70
2018-10-05T07:15:49.343Z,102234.22
2018-10-05T07:18:18.202Z,102232.90
2018-10-05T07:20:47.100Z,102237.20
2018-10-05T07:23:15.944Z,102231.25
2018-10-05T07:25:45.472Z,102231.95
2018-10-05T07:28:14.403Z,102230.05
2018-10-05T07:30:43.263Z,102232.05
2018-10-05T07:33:12.131Z,102230.31
2018-10-05T07:35:41.006Z,102223.95
2018-10-05T07:38:09.975Z,102226.00
2018-10-05T07:40:38.830Z,102223.86
2018-10-05T07:43:07.764Z,102223.86
2018-10-05T07:45:36.570Z,102219.69
2018-10-05T07:48:05.567Z,102220.53
2018-10-05T07:50:34.533Z,102216.13
2018-10-05T07:53:03.665Z,102227.48
2018-10-05T07:55:32.532Z,102216.77
2018-10-05T07:58:02.049Z,102223.08
2018-10-05T08:00:30.893Z,102219.28
2018-10-05T08:02:59.854Z,102222.27
2018-10-05T08:05:28.665Z,102222.72
2018-10-05T08:07:57.645Z,102225.78
2018-10-05T08:10:26.538Z,102225.79
2018-10-05T08:12:55.404Z,102220.05
2018-10-05T08:15:24.392Z,102217.86
2018-10-05T08:17:53.235Z,102221.02
2018-10-05T08:20:22.215Z,102226.11
2018-10-05T08:22:51.131Z,102222.19
2018-10-05T08:25:20.057Z,102215.27
2018-10-05T08:27:48.981Z,102212.58
2018-10-05T08:30:17.856Z,102210.41
2018-10-05T08:32:46.694Z,102213.14
2018-10-05T08:35:15.609Z,102206.47
2018-10-05T08:37:44.437Z,102206.70
2018-10-05T08:40:13.399Z,102196.16
2018-10-05T08:42:42.228Z,102195.98
2018-10-05T08:45:11.176Z,102203.08
2018-10-05T08:47:40.103Z,102200.31
2018-10-05T08:50:09.038Z,102196.95
2018-10-05T08:52:38.011Z,102194.15
2018-10-05T08:55:07.061Z,102191.48
2018-10-05T08:57:35.890Z,102189.19
2018-10-05T09:00:05.376Z,102184.02
2018-10-05T09:02:34.300Z,102185.92
2018-10-05T09:05:03.379Z,102173.58
2018-10-05T09:07:32.193Z,102176.00
2018-10-05T09:10:00.969Z,102170.27
2018-10-05T09:12:29.857Z,102168.59
2018-10-05T09:14:59.017Z,102160.05
2018-10-05T09:17:28.037Z,102157.20
2018-10-05T09:19:56.890Z,102153.48
2018-10-05T09:22:25.857Z,102147.20
2018-10-05T09:24:55.161Z,102153.12
2018-10-05T09:27:24.053Z,102152.97
2018-10-05T09:29:52.962Z,102143.38
2018-10-05T09:32:22.072Z,102145.98
2018-10-05T09:34:50.903Z,102139.59
2018-10-05T09:37:19.976Z,102134.17
2018-10-05T09:39:49.075Z,102128.24
2018-10-05T09:42:18.080Z,102123.01
2018-10-05T09:44:46.965Z,102123.65
2018-10-05T09:47:15.928Z,102124.16
2018-10-05T09:49:44.734Z,102126.48
2018-10-05T09:52:14.006Z,102120.83
2018-10-05T09:54:43.143Z,102117.80
2018-10-05T09:57:12.020Z,102120.52
2018-10-05T09:59:41.256Z,102117.11
2018-10-05T10:02:22.652Z,102112.53
2018-10-05T10:04:51.578Z,102109.11
2018-10-05T10:07:20.470Z,102104.09
2018-10-05T10:09:49.342Z,102103.27
2018-10-05T10:12:18.585Z,102101.52
2018-10-05T10:14:47.500Z,102097.18
2018-10-05T10:17:16.407Z,102095.73
2018-10-05T10:19:45.237Z,102096.69
2018-10-05T10:22:14.105Z,102100.68
2018-10-05T10:24:43.009Z,102093.92
2018-10-05T10:27:11.865Z,102088.70
2018-10-05T10:29:40.788Z,102087.45
2018-10-05T10:32:09.633Z,102087.63
2018-10-05T10:34:38.521Z,102088.18
2018-10-05T10:37:07.340Z,102085.27
2018-10-05T10:39:36.220Z,102084.89
2018-10-05T10:42:05.088Z,102080.75
2018-10-05T10:44:33.940Z,102071.98
2018-10-05T10:47:02.841Z,102071.58
2018-10-05T10:49:31.698Z,102071.45
2018-10-05T10:52:00.710Z,102061.91
2018-10-05T10:54:29.715Z,102053.39
2018-10-05T10:56:58.583Z,102050.75
2018-10-05T10:59:27.445Z,102050.59
2018-10-05T11:01:56.305Z,102047.29
2018-10-05T11:04:25.543Z,102043.77
2018-10-05T11:06:54.440Z,102046.40
2018-10-05T11:09:23.313Z,102039.69
2018-10-05T11:11:52.256Z,102034.80
2018-10-05T11:14:21.120Z,102033.45
2018-10-05T11:16:50.047Z,102027.18
2018-10-05T11:19:18.965Z,102017.86
2018-10-05T11:21:48.207Z,102015.31
2018-10-05T11:24:17.024Z,102012.38
2018-10-05T11:26:46.109Z,102012.13
2018-10-05T11:29:14.971Z,102007.67
2018-10-05T11:31:43.899Z,102003.33
2018-10-05T11:34:12.721Z,101997.81
2018-10-05T11:36:41.745Z,101991.38
2018-10-05T11:39:10.592Z,101991.56
2018-10-05T11:41:39.474Z,101986.25
2018-10-05T11:44:08.350Z,101979.97
2018-10-05T11:46:37.220Z,101973.03
2018-10-05T11:49:06.224Z,101960.16
2018-10-05T11:51:35.121Z,101965.17
2018-10-05T11:54:04.036Z,101961.55
2018-10-05T11:56:33.091Z,101954.29
2018-10-05T11:59:01.915Z,101952.92
2018-10-05T12:01:30.844Z,101944.48
2018-10-05T12:03:59.684Z,101942.35
2018-10-05T12:06:28.545Z,101938.61
2018-10-05T12:08:57.485Z,101925.19
2018-10-05T12:11:26.477Z,101926.17
2018-10-05T12:13:55.497Z,101922.59
2018-10-05T12:16:24.319Z,101918.84
2018-10-05T12:18:53.196Z,101917.06
2018-10-05T12:21:22.135Z,101908.36
2018-10-05T12:23:51.060Z,101906.83
2018-10-05T12:26:19.976Z,101903.08
2018-10-05T12:28:48.889Z,101897.48
2018-10-05T12:31:17.750Z,101900.14
2018-10-05T12:33:46.777Z,101898.52
2018-10-05T12:36:15.685Z,101884.11
2018-10-05T12:38:44.632Z,101887.45
2018-10-05T12:41:13.449Z,101878.55
2018-10-05T12:43:42.619Z,101881.71
2018-10-05T12:46:11.564Z,101867.48
2018-10-05T12:48:40.476Z,101869.67
2018-10-05T12:51:09.300Z,101866.31
2018-10-05T12:53:38.116Z,101866.31
2018-10-05T12:56:07.000Z,101864.75
2018-10-05T12:58:35.911Z,101858.00
2018-10-05T13:01:04.838Z,101858.03
2018-10-05T13:03:33.764Z,101857.45
2018-10-05T13:06:02.617Z,101842.77
2018-10-05T13:08:31.435Z,101840.23
2018-10-05T13:11:00.452Z,101841.79
2018-10-05T13:13:29.315Z,101837.02
2018-10-05T13:15:58.200Z,101831.67
2018-10-05T13:18:27.029Z,101827.88
2018-10-05T13:20:55.921Z,101831.51
2018-10-05T13:23:24.792Z,101831.28
2018-10-05T13:25:53.858Z,101829.72
2018-10-05T13:28:22.810Z,101827.13
2018-10-05T13:30:51.627Z,101826.12
2018-10-05T13:33:20.424Z,101825.36
2018-10-05T13:35:49.396Z,101819.38
2018-10-05T13:38:18.234Z,101814.64
2018-10-05T13:40:47.102Z,101821.16
2018-10-05T13:43:16.233Z,101821.55
2018-10-05T13:45:45.091Z,101814.24
2018-10-05T13:48:13.954Z,101813.86
2018-10-05T13:50:42.924Z,101804.33
2018-10-05T13:53:11.763Z,101805.11
2018-10-05T13:55:40.654Z,101801.97
2018-10-05T13:58:09.507Z,101794.84
2018-10-05T14:00:38.403Z,101790.86
2018-10-05T14:03:07.244Z,101789.48
2018-10-05T14:05:36.045Z,101777.97
2018-10-05T14:08:05.294Z,101777.38
2018-10-05T14:10:34.098Z,101778.73
2018-10-05T14:13:03.081Z,101775.77
2018-10-05T14:15:31.933Z,101769.47
2018-10-05T14:18:00.851Z,101762.75
2018-10-05T14:20:29.669Z,101769.09
2018-10-05T14:22:58.567Z,101765.91
2018-10-05T14:25:27.539Z,101760.95
2018-10-05T14:27:56.413Z,101754.40
2018-10-05T14:30:25.257Z,101750.11
2018-10-05T14:32:54.159Z,101743.78
2018-10-05T14:35:23.003Z,101750.91
2018-10-05T14:37:52.234Z,101740.62
2018-10-05T14:40:21.014Z,101731.72
2018-10-05T14:42:49.864Z,101726.38
2018-10-05T14:45:18.693Z,101723.42
2018-10-05T14:47:47.511Z,101722.63
2018-10-05T14:50:16.401Z,101721.05
2018-10-05T14:52:45.282Z,101725.80
2018-10-05T14:55:14.093Z,101720.88
2018-10-05T14:57:43.440Z,101707.80
2018-10-05T15:00:12.247Z,101714.55
2018-10-05T15:02:41.223Z,101706.84
2018-10-05T15:05:10.431Z,101707.03
2018-10-05T15:07:39.229Z,101703.09
2018-10-05T15:10:08.181Z,101698.94
2018-10-05T15:12:37.110Z,101693.77
2018-10-05T15:15:06.802Z,101693.60
2018-10-05T15:17:35.642Z,101692.80
2018-10-05T15:20:04.917Z,101689.63
2018-10-05T15:22:33.846Z,101686.44
2018-10-05T15:25:02.707Z,101683.70
2018-10-05T15:27:31.961Z,101684.07
2018-10-05T15:30:00.836Z,101685.64
2018-10-05T15:32:29.790Z,101674.16
2018-10-05T15:34:58.639Z,101669.83
2018-10-05T15:37:27.469Z,101673.39
2018-10-05T15:39:56.430Z,101658.95
2018-10-05T15:42:25.307Z,101663.09
2018-10-05T15:44:54.175Z,101664.86
2018-10-05T15:47:23.055Z,101657.77
2018-10-05T15:49:51.926Z,101659.92
2018-10-05T15:52:20.841Z,101654.20
2018-10-05T15:54:49.674Z,101647.86
2018-10-05T15:57:18.522Z,101641.53
2018-10-05T15:59:47.371Z,101642.89
2018-10-05T16:02:16.285Z,101648.81
2018-10-05T16:04:45.209Z,101645.81
2018-10-05T16:07:14.084Z,101648.67
2018-10-05T16:09:42.987Z,101653.39
2018-10-05T16:12:11.950Z,101648.04
2018-10-05T16:14:40.807Z,101645.97
2018-10-05T16:17:09.766Z,101646.52
2018-10-05T16:19:38.644Z,101643.30
2018-10-05T16:22:07.501Z,101638.14
2018-10-05T16:24:39.361Z,101636.91
2018-10-05T16:27:08.683Z,101636.66
2018-10-05T16:29:37.883Z,101629.06
2018-10-05T16:32:07.835Z,101626.02
2018-10-05T16:34:36.689Z,101621.80
2018-10-05T16:37:05.993Z,101617.99
2018-10-05T16:39:35.111Z,101619.13
2018-10-05T16:42:04.560Z,101611.12
2018-10-05T16:44:33.443Z,101613.21
2018-10-05T16:47:02.375Z,101620.78
2018-10-05T16:49:31.212Z,101619.87
2018-10-05T16:52:00.135Z,101623.41
2018-10-05T16:54:29.017Z,101619.92
2018-10-05T16:56:57.943Z,101619.83
2018-10-05T16:59:26.810Z,101623.43
2018-10-05T17:01:55.923Z,101618.03
2018-10-05T17:04:24.931Z,101622.42
2018-10-05T17:06:54.105Z,101619.81
2018-10-05T17:09:23.000Z,101619.69
2018-10-05T17:11:51.873Z,101616.20
2018-10-05T17:14:20.735Z,101614.53
2018-10-05T17:16:49.560Z,101616.96
2018-10-05T17:19:18.481Z,101624.89
2018-10-05T17:21:47.296Z,101618.67
2018-10-05T17:24:16.178Z,101618.47
2018-10-05T17:26:45.020Z,101618.66
2018-10-05T17:29:14.216Z,101619.73
2018-10-05T17:31:43.335Z,101619.31
2018-10-05T17:34:12.290Z,101618.13
2018-10-05T17:36:41.175Z,101621.89
2018-10-05T17:39:10.644Z,101615.85
2018-10-05T17:41:39.555Z,101609.87
2018-10-05T17:44:08.731Z,101604.31
2018-10-05T17:46:37.593Z,101600.33
2018-10-05T17:49:07.073Z,101600.84
2018-10-05T17:51:36.669Z,101598.78
2018-10-05T17:54:05.652Z,101593.22
2018-10-05T17:56:35.079Z,101599.31
2018-10-05T17:59:03.888Z,101598.18
2018-10-05T18:01:32.806Z,101604.28
2018-10-05T18:04:01.745Z,101595.38
2018-10-05T18:06:30.891Z,101592.30
2018-10-05T18:08:59.853Z,101589.75
2018-10-05T18:11:28.722Z,101592.37
2018-10-05T18:13:58.241Z,101592.60
2018-10-05T18:16:27.137Z,101586.37
2018-10-05T18:18:55.963Z,101583.77
2018-10-05T18:21:26.088Z,101585.56
2018-10-05T18:23:55.396Z,101579.14
2018-10-05T18:26:25.528Z,101575.82
2018-10-05T18:28:54.400Z,101575.00
2018-10-05T18:31:23.280Z,101578.77
2018-10-05T18:33:52.798Z,101576.89
2018-10-05T18:36:21.747Z,101577.02
2018-10-05T18:38:50.561Z,101571.98
2018-10-05T18:41:20.054Z,101573.17
2018-10-05T18:43:48.835Z,101578.14
2018-10-05T18:46:17.856Z,101567.91
2018-10-05T18:48:46.677Z,101570.62
2018-10-05T18:51:15.642Z,101566.15
2018-10-05T18:53:45.132Z,101563.85
2018-10-05T18:56:31.153Z,101574.36
2018-10-05T18:58:59.988Z,101569.28
2018-10-05T19:01:28.851Z,101563.16
2018-10-05T19:03:57.757Z,101567.70
2018-10-05T19:06:27.525Z,101560.27
2018-10-05T19:08:56.808Z,101558.39
2018-10-05T19:11:25.863Z,101554.17
2018-10-05T19:13:55.337Z,101551.26
2018-10-05T19:16:25.441Z,101557.58
2018-10-05T19:18:55.330Z,101549.98
2018-10-05T19:21:24.218Z,101552.99
2018-10-05T19:23:53.204Z,101548.89
2018-10-05T19:26:23.213Z,101550.41
2018-10-05T19:28:51.935Z,101547.37
2018-10-05T19:31:20.877Z,101548.26
2018-10-05T19:33:49.717Z,101551.47
2018-10-05T19:36:18.603Z,101546.62
2018-10-05T19:38:48.278Z,101546.17
2018-10-05T19:41:17.672Z,101546.20
2018-10-05T19:43:46.692Z,101554.77
2018-10-05T19:46:15.590Z,101549.78
2018-10-05T19:48:44.552Z,101543.89
2018-10-05T19:51:13.500Z,101542.39
2018-10-05T19:53:42.531Z,101537.06
2018-10-05T19:56:13.257Z,101535.36
2018-10-05T19:58:42.202Z,101540.62
2018-10-05T20:01:11.699Z,101537.23
2018-10-05T20:03:40.584Z,101534.05
2018-10-05T20:06:09.456Z,101531.98
2018-10-05T20:08:38.321Z,101530.31
2018-10-05T20:11:08.476Z,101523.83
2018-10-05T20:13:37.439Z,101517.91
2018-10-05T20:16:06.375Z,101519.29
2018-10-05T20:18:35.284Z,101517.02
2018-10-05T20:21:04.093Z,101519.09
2018-10-05T20:23:33.341Z,101517.27
2018-10-05T20:26:02.956Z,101516.38
2018-10-05T20:28:32.161Z,101506.84
2018-10-05T20:31:01.074Z,101505.70
2018-10-05T20:33:30.125Z,101504.47
2018-10-05T20:35:59.033Z,101506.16
2018-10-05T20:38:27.961Z,101501.61
2018-10-05T20:40:56.928Z,101499.33
2018-10-05T20:43:25.733Z,101496.50
2018-10-05T20:45:54.690Z,101494.46
2018-10-05T20:48:23.500Z,101496.96
2018-10-05T20:50:52.459Z,101492.55
2018-10-05T20:53:21.294Z,101496.85
2018-10-05T20:55:50.140Z,101490.94
2018-10-05T20:58:19.036Z,101482.52
2018-10-05T21:00:47.844Z,101477.05
2018-10-05T21:03:16.801Z,101482.42
2018-10-05T21:05:45.800Z,101475.94
2018-10-05T21:08:15.760Z,101470.59
2018-10-05T21:10:44.749Z,101468.80
2018-10-05T21:13:13.730Z,101472.34
2018-10-05T21:15:42.625Z,101466.66
2018-10-05T21:18:11.500Z,101467.36
2018-10-05T21:20:40.300Z,101465.08
2018-10-05T21:23:09.176Z,101457.13
2018-10-05T21:25:37.986Z,101459.86
2018-10-05T21:28:07.545Z,101464.16
2018-10-05T21:30:36.396Z,101458.25
2018-10-05T21:33:05.364Z,101454.25
2018-10-05T21:35:34.299Z,101458.70
2018-10-05T21:38:03.248Z,101458.59
2018-10-05T21:40:32.128Z,101451.88
2018-10-05T21:43:01.277Z,101445.72
2018-10-05T21:45:30.127Z,101442.53
2018-10-05T21:47:59.051Z,101442.88
2018-10-05T21:50:27.875Z,101434.23
2018-10-05T21:52:56.923Z,101438.78
2018-10-05T21:55:25.787Z,101442.30
2018-10-05T21:57:54.620Z,101436.27
2018-10-05T22:00:23.984Z,101431.16
2018-10-05T22:02:52.906Z,101426.95
2018-10-05T22:05:21.811Z,101426.36
2018-10-05T22:07:50.695Z,101430.24
2018-10-05T22:10:19.549Z,101425.27
2018-10-05T22:12:48.484Z,101418.89
2018-10-05T22:15:17.380Z,101416.97
2018-10-05T22:17:46.342Z,101416.86
2018-10-05T22:20:15.205Z,101413.22
2018-10-05T22:22:44.022Z,101412.19
2018-10-05T22:25:13.196Z,101410.26
2018-10-05T22:27:42.003Z,101407.75
2018-10-05T22:30:10.937Z,101404.14
2018-10-05T22:32:39.758Z,101405.15
2018-10-05T22:35:08.691Z,101414.84
2018-10-05T22:37:37.615Z,101405.59
2018-10-05T22:40:06.659Z,101401.75
2018-10-05T22:42:35.528Z,101403.92
2018-10-05T22:45:09.361Z,101391.84
2018-10-05T22:47:38.264Z,101389.81
2018-10-05T22:50:07.202Z,101381.27
2018-10-05T22:52:36.139Z,101385.71
2018-10-05T22:55:05.121Z,101391.62
2018-10-05T22:57:33.944Z,101387.77
2018-10-05T23:00:02.877Z,101386.51
2018-10-05T23:02:31.741Z,101384.80
2018-10-05T23:05:01.208Z,101379.80
2018-10-05T23:07:30.066Z,101377.53
2018-10-05T23:09:58.926Z,101373.88
2018-10-05T23:12:27.862Z,101372.97
2018-10-05T23:14:56.770Z,101367.75
2018-10-05T23:17:25.733Z,101370.94
2018-10-05T23:19:54.557Z,101368.87
2018-10-05T23:22:23.418Z,101361.84
2018-10-05T23:24:52.343Z,101359.80
2018-10-05T23:27:21.224Z,101359.91
2018-10-05T23:29:50.142Z,101360.92
2018-10-05T23:32:19.027Z,101359.11
2018-10-05T23:34:47.845Z,101356.38
2018-10-05T23:37:16.799Z,101360.95
2018-10-05T23:39:45.621Z,101361.86
2018-10-05T23:42:14.568Z,101359.57
2018-10-05T23:44:43.409Z,101354.79
2018-10-05T23:47:12.351Z,101354.33
2018-10-05T23:49:41.187Z,101354.47
2018-10-05T23:52:52.107Z,101351.03
2018-10-05T23:55:21.118Z,101357.06
2018-10-05T23:57:50.058Z,101363.88
